Country
Station

 

Weather  for  Gaylord, Otsego County Airport  -  United States    United States

  
6 °C (43 °F)
    
 
 

Current METAR for Gaylord, Otsego County Airport is :

KGLR 211753Z AUTO 19006KT 10SM OVC065 06/00 A2995 RMK AO2 SLP156 T00560000 10056 21006 58010

 

This is a report for Gaylord, Otsego County Airport - United States.
 
The report was made 6 minutes ago, at 17:53 UTC .
The wind was blowing at a speed of 3.1 meters per second (6.9 miles per hour) from south (190°).
 
The temperature was 6 °C (43 °F)
The atmospheric pressure was 1014 hPa (29.95 inHg).
The sky was overcast from a height of 1981 meter (6500 feet)
 
The overall visibility was 16.1 kilometers (10.0 miles).
 

 
 
 
 

Country :   A   B   C   D   E   F   G   H   I   J   K   L   M   N   O   P   Q   R   S   T   U   V   W   Y   Z

 

Site Info  |  Disclaimer  |  Credits  |  Privacy
Contact us  |  Add to favorites
© 2013-2018 METARs - All rights reserved